createdAt,value
2022-12-19T00:01:48.192Z,1.60
2022-12-19T00:04:54.646Z,1.93
2022-12-19T00:08:03.092Z,1.93
2022-12-19T00:11:18.396Z,1.90
2022-12-19T00:14:23.492Z,2.10
2022-12-19T00:17:29.819Z,1.97
2022-12-19T00:20:34.704Z,1.90
2022-12-19T00:23:40.010Z,2.00
2022-12-19T00:26:44.954Z,2.13
2022-12-19T00:29:49.852Z,2.40
2022-12-19T00:32:56.338Z,2.13
2022-12-19T00:36:03.487Z,2.00
2022-12-19T00:39:11.819Z,2.00
2022-12-19T00:42:16.845Z,2.40
2022-12-19T00:45:22.380Z,1.87
2022-12-19T00:48:30.278Z,2.10
2022-12-19T00:51:37.124Z,1.90
2022-12-19T00:54:42.128Z,1.80
2022-12-19T00:57:47.098Z,2.13
2022-12-19T01:00:52.066Z,1.90
2022-12-19T01:07:26.124Z,2.10
2022-12-19T01:10:31.095Z,2.40
2022-12-19T01:13:36.564Z,2.00
2022-12-19T01:16:47.050Z,2.10
2022-12-19T01:19:53.406Z,2.27
2022-12-19T01:23:00.291Z,2.03
2022-12-19T01:26:06.315Z,2.30
2022-12-19T01:29:12.660Z,2.20
2022-12-19T01:32:17.525Z,2.20
2022-12-19T01:35:24.076Z,2.07
2022-12-19T01:38:29.115Z,1.83
2022-12-19T01:41:33.996Z,1.90
2022-12-19T01:44:41.467Z,1.80
2022-12-19T01:47:51.223Z,1.80
2022-12-19T01:51:03.426Z,1.90
2022-12-19T01:54:10.048Z,1.80
2022-12-19T01:57:16.512Z,1.90
2022-12-19T02:00:21.811Z,2.03
2022-12-19T02:03:30.028Z,1.87
2022-12-19T02:06:36.830Z,1.87
2022-12-19T02:09:42.030Z,2.17
2022-12-19T02:12:47.910Z,1.53
2022-12-19T02:15:59.241Z,1.83
2022-12-19T02:19:19.611Z,1.73
2022-12-19T02:22:31.188Z,2.00
2022-12-19T02:25:51.963Z,1.90
2022-12-19T02:29:22.542Z,2.10
2022-12-19T02:32:36.247Z,1.77
2022-12-19T02:35:45.537Z,1.90
2022-12-19T02:38:55.581Z,1.90
2022-12-19T02:42:02.484Z,1.83
2022-12-19T02:45:09.904Z,1.77
2022-12-19T02:48:19.326Z,1.90
2022-12-19T02:51:25.474Z,2.20
2022-12-19T02:54:30.895Z,1.87
2022-12-19T02:57:44.613Z,2.10
2022-12-19T03:00:56.759Z,1.93
2022-12-19T03:04:12.070Z,2.10
2022-12-19T03:07:26.166Z,2.10
2022-12-19T03:10:35.434Z,2.20
2022-12-19T03:13:45.569Z,2.30
2022-12-19T03:16:51.599Z,2.03
2022-12-19T03:19:58.225Z,2.00
2022-12-19T03:23:03.317Z,2.10
2022-12-19T03:26:11.071Z,2.03
2022-12-19T03:29:18.970Z,2.43
2022-12-19T03:32:25.383Z,1.87
2022-12-19T03:35:32.969Z,2.20
2022-12-19T03:38:40.657Z,2.27
2022-12-19T03:42:03.595Z,1.90
2022-12-19T03:45:09.664Z,1.90
2022-12-19T03:48:18.336Z,2.00
2022-12-19T03:51:31.010Z,2.00
2022-12-19T03:54:40.567Z,1.80
2022-12-19T03:57:49.562Z,2.00
2022-12-19T04:00:55.361Z,2.00
2022-12-19T04:04:01.437Z,1.87
2022-12-19T04:07:08.152Z,2.00
2022-12-19T04:10:15.991Z,2.07
2022-12-19T04:13:24.687Z,2.00
2022-12-19T04:16:33.948Z,2.40
2022-12-19T04:19:45.129Z,1.90
2022-12-19T04:22:54.539Z,2.50
2022-12-19T04:26:03.000Z,2.30
2022-12-19T04:29:08.425Z,2.10
2022-12-19T04:32:15.317Z,2.30
2022-12-19T04:35:20.633Z,2.63
2022-12-19T04:38:27.465Z,3.07
2022-12-19T04:41:33.400Z,3.47
2022-12-19T04:44:38.450Z,3.37
2022-12-19T04:47:43.752Z,3.43
2022-12-19T04:50:48.877Z,4.00
2022-12-19T04:53:55.340Z,3.60
2022-12-19T04:57:00.523Z,4.03
2022-12-19T05:00:08.630Z,4.37
2022-12-19T05:03:13.685Z,4.70
2022-12-19T05:06:18.734Z,4.57
2022-12-19T05:09:25.556Z,5.13
2022-12-19T05:12:30.800Z,5.27
2022-12-19T05:15:35.961Z,5.17
2022-12-19T05:18:41.501Z,5.27
2022-12-19T05:21:46.892Z,5.23
2022-12-19T05:24:53.526Z,5.60
2022-12-19T05:27:58.798Z,5.50
2022-12-19T05:31:08.179Z,5.90
2022-12-19T05:34:13.379Z,6.60
2022-12-19T05:37:18.921Z,6.30
2022-12-19T05:40:25.442Z,6.77
2022-12-19T05:43:30.930Z,7.17
2022-12-19T05:46:36.145Z,6.97
2022-12-19T05:49:41.035Z,7.33
2022-12-19T05:52:46.637Z,8.80
2022-12-19T05:55:53.386Z,7.77
2022-12-19T05:59:01.071Z,8.07
2022-12-19T06:02:06.810Z,8.63
2022-12-19T06:05:12.772Z,8.53
2022-12-19T06:08:21.285Z,8.73
2022-12-19T06:11:28.541Z,8.93
2022-12-19T06:14:33.671Z,9.07
2022-12-19T06:17:38.606Z,9.53
2022-12-19T06:20:43.582Z,9.73
2022-12-19T06:23:49.661Z,9.00
2022-12-19T06:26:56.112Z,9.47
2022-12-19T06:30:01.714Z,9.83
2022-12-19T06:33:06.989Z,10.73
2022-12-19T06:36:18.235Z,9.20
2022-12-19T06:39:24.517Z,10.30
2022-12-19T06:42:33.423Z,10.27
2022-12-19T06:45:39.890Z,9.93
2022-12-19T06:48:46.059Z,9.97
2022-12-19T06:51:52.324Z,9.20
2022-12-19T06:54:57.695Z,9.10
2022-12-19T06:58:04.393Z,9.60
2022-12-19T07:01:17.005Z,9.20
2022-12-19T07:04:26.932Z,9.33
2022-12-19T07:07:32.798Z,9.67
2022-12-19T07:10:39.282Z,9.23
2022-12-19T07:13:47.597Z,9.03
2022-12-19T07:16:54.176Z,8.97
2022-12-19T07:20:00.593Z,9.53
2022-12-19T07:23:07.178Z,9.80
2022-12-19T07:26:13.626Z,9.47
2022-12-19T07:29:20.701Z,10.33
2022-12-19T07:32:25.990Z,9.67
2022-12-19T07:35:31.378Z,9.87
2022-12-19T07:38:36.976Z,10.17
2022-12-19T07:41:42.654Z,10.03
2022-12-19T07:44:49.381Z,10.67
2022-12-19T07:47:55.279Z,10.00
2022-12-19T07:51:00.711Z,10.27
2022-12-19T07:54:06.068Z,9.40
2022-12-19T07:57:11.273Z,9.47
2022-12-19T08:00:18.868Z,8.23
2022-12-19T08:03:24.742Z,9.07
2022-12-19T08:06:30.312Z,8.60
2022-12-19T08:09:35.922Z,8.27
2022-12-19T08:12:41.409Z,7.37
2022-12-19T08:15:48.448Z,7.47
2022-12-19T08:18:53.754Z,6.23
2022-12-19T08:21:59.495Z,6.70
2022-12-19T08:25:04.746Z,6.50
2022-12-19T08:28:10.224Z,6.10
2022-12-19T08:31:18.808Z,5.63
2022-12-19T08:34:24.048Z,5.57
2022-12-19T08:37:29.316Z,5.70
2022-12-19T08:40:34.447Z,5.03
2022-12-19T08:43:39.985Z,4.90
2022-12-19T08:46:49.967Z,5.03
2022-12-19T08:49:55.503Z,5.00
2022-12-19T08:53:00.614Z,4.50
2022-12-19T08:56:07.914Z,4.03
2022-12-19T08:59:13.427Z,3.90
2022-12-19T09:02:21.838Z,3.63
2022-12-19T09:06:04.492Z,3.60
2022-12-19T09:08:52.430Z,3.57
2022-12-19T09:11:59.968Z,3.97
2022-12-19T09:15:06.098Z,3.53
2022-12-19T09:18:15.342Z,3.87
2022-12-19T09:21:21.510Z,3.90
2022-12-19T09:24:26.666Z,4.30
2022-12-19T09:27:42.500Z,4.17
2022-12-19T09:30:58.181Z,5.03
2022-12-19T09:34:05.149Z,5.13
2022-12-19T09:37:16.444Z,4.47
2022-12-19T09:40:23.214Z,5.53
2022-12-19T09:43:41.094Z,4.87
2022-12-19T09:46:50.907Z,6.10
2022-12-19T09:49:57.644Z,6.20
2022-12-19T09:53:08.116Z,7.17
2022-12-19T09:56:17.218Z,6.87
2022-12-19T09:59:31.828Z,7.30
2022-12-19T10:02:50.700Z,5.57
2022-12-19T10:06:45.698Z,6.50
2022-12-19T10:12:12.718Z,6.47
2022-12-19T10:13:13.247Z,6.77
2022-12-19T10:16:22.935Z,7.67
2022-12-19T10:19:36.027Z,7.53
2022-12-19T10:22:49.319Z,7.53
2022-12-19T10:26:00.916Z,7.70
2022-12-19T10:29:25.001Z,6.83
2022-12-19T10:32:36.791Z,7.33
2022-12-19T10:35:45.397Z,7.17
2022-12-19T10:38:58.513Z,7.67
2022-12-19T10:42:10.948Z,8.03
2022-12-19T10:45:19.260Z,7.83
2022-12-19T10:48:30.796Z,7.57
2022-12-19T10:51:36.539Z,7.87
2022-12-19T10:54:44.293Z,6.57
2022-12-19T10:57:49.886Z,7.47
2022-12-19T11:01:14.178Z,9.00
2022-12-19T11:04:52.582Z,8.17
2022-12-19T11:08:12.509Z,8.17
2022-12-19T11:14:33.961Z,8.60
2022-12-19T11:18:47.493Z,9.03
2022-12-19T11:28:08.237Z,9.17
2022-12-19T11:29:39.512Z,8.07
2022-12-19T11:30:46.766Z,8.77
2022-12-19T11:30:59.584Z,8.07
2022-12-19T11:32:39.502Z,8.70
2022-12-19T11:35:51.278Z,8.83
2022-12-19T11:38:56.773Z,8.17
2022-12-19T11:42:10.089Z,8.50
2022-12-19T11:45:21.600Z,7.67
2022-12-19T11:48:35.856Z,8.60
2022-12-19T11:51:45.088Z,8.70
2022-12-19T11:54:59.623Z,9.03
2022-12-19T11:58:07.257Z,8.83
2022-12-19T12:01:19.793Z,8.80
2022-12-19T12:04:54.433Z,9.53
2022-12-19T12:09:02.011Z,8.77
2022-12-19T12:18:54.201Z,8.03
2022-12-19T12:28:38.957Z,7.90
2022-12-19T12:31:05.688Z,7.87
2022-12-19T12:31:21.757Z,8.20
2022-12-19T12:31:40.921Z,8.07
2022-12-19T12:31:57.251Z,8.43
2022-12-19T12:35:38.340Z,7.90
2022-12-19T12:40:49.967Z,8.10
2022-12-19T12:44:07.830Z,8.30
2022-12-19T12:47:19.131Z,8.70
2022-12-19T12:50:26.611Z,8.50
2022-12-19T12:53:35.550Z,7.40
2022-12-19T12:56:41.774Z,9.10
2022-12-19T12:59:48.768Z,8.00
2022-12-19T13:02:58.810Z,7.13
2022-12-19T13:06:11.719Z,8.43
2022-12-19T13:09:28.099Z,9.33
2022-12-19T13:13:02.570Z,8.97
2022-12-19T13:16:55.643Z,9.17
2022-12-19T13:20:41.644Z,8.27
2022-12-19T13:23:50.353Z,9.43
2022-12-19T13:26:59.080Z,8.70
2022-12-19T13:30:17.664Z,8.57
2022-12-19T13:33:23.279Z,8.40
2022-12-19T13:39:58.422Z,8.53
2022-12-19T13:40:30.631Z,8.70
2022-12-19T13:43:48.037Z,8.83
2022-12-19T13:46:54.308Z,8.27
2022-12-19T13:50:00.345Z,8.83
2022-12-19T13:53:13.115Z,7.80
2022-12-19T13:56:22.206Z,7.83
2022-12-19T13:59:32.180Z,8.40
2022-12-19T14:02:45.923Z,9.33
2022-12-19T14:06:17.424Z,9.03
2022-12-19T14:11:31.317Z,9.00
2022-12-19T14:13:46.812Z,8.87
2022-12-19T14:16:45.163Z,8.90
2022-12-19T14:19:53.597Z,8.73
2022-12-19T14:23:25.898Z,8.07
2022-12-19T14:28:23.675Z,8.63
2022-12-19T14:30:28.859Z,8.47
2022-12-19T14:33:58.913Z,7.40
2022-12-19T14:37:07.598Z,8.70
2022-12-19T14:40:23.746Z,8.57
2022-12-19T14:43:58.819Z,8.93
2022-12-19T14:52:34.153Z,8.80
2022-12-19T14:54:07.659Z,8.63
2022-12-19T14:58:51.228Z,8.73
2022-12-19T15:01:24.580Z,8.47
2022-12-19T15:04:52.889Z,8.17
2022-12-19T15:08:01.916Z,8.27
2022-12-19T15:11:48.830Z,10.17
2022-12-19T15:14:59.669Z,9.33
2022-12-19T15:18:18.420Z,8.77
2022-12-19T15:21:26.569Z,8.07
2022-12-19T15:24:35.236Z,8.23
2022-12-19T15:27:41.005Z,9.17
2022-12-19T15:30:49.381Z,8.30
2022-12-19T15:34:33.584Z,9.17
2022-12-19T15:37:26.250Z,8.90
2022-12-19T15:40:35.220Z,7.60
2022-12-19T15:44:02.996Z,9.00
2022-12-19T15:47:08.235Z,9.67
2022-12-19T15:50:20.204Z,8.43
2022-12-19T15:53:40.251Z,8.73
2022-12-19T15:56:57.073Z,8.97
2022-12-19T16:00:07.954Z,9.37
2022-12-19T16:03:25.704Z,10.07
2022-12-19T16:06:32.389Z,10.27
2022-12-19T16:09:53.276Z,9.63
2022-12-19T16:13:01.638Z,9.80
2022-12-19T16:16:16.143Z,10.03
2022-12-19T16:19:26.324Z,10.50
2022-12-19T16:22:34.122Z,10.40
2022-12-19T16:25:42.516Z,9.53
2022-12-19T16:28:53.366Z,10.73
2022-12-19T16:32:01.308Z,9.83
2022-12-19T16:35:24.014Z,9.67
2022-12-19T16:38:41.678Z,9.63
2022-12-19T16:41:47.864Z,10.00
2022-12-19T16:44:56.476Z,10.00
2022-12-19T16:48:02.388Z,10.80
2022-12-19T16:51:09.378Z,10.77
2022-12-19T16:54:15.489Z,11.67
2022-12-19T16:57:22.610Z,11.53
2022-12-19T17:00:34.856Z,10.50
2022-12-19T17:03:43.349Z,11.27
2022-12-19T17:06:49.319Z,11.10
2022-12-19T17:10:01.719Z,11.37
2022-12-19T17:13:08.932Z,12.07
2022-12-19T17:16:18.246Z,10.70
2022-12-19T17:19:27.818Z,11.63
2022-12-19T17:22:34.349Z,11.13
2022-12-19T17:25:40.862Z,8.73
2022-12-19T17:28:49.288Z,10.97
2022-12-19T17:31:57.007Z,9.97
2022-12-19T17:35:02.863Z,11.00
2022-12-19T17:38:16.719Z,10.90
2022-12-19T17:41:24.972Z,11.90
2022-12-19T17:44:40.215Z,12.37
2022-12-19T17:47:49.005Z,11.87
2022-12-19T17:50:55.148Z,10.67
2022-12-19T17:54:01.636Z,11.13
2022-12-19T17:57:06.930Z,12.20
2022-12-19T18:00:16.509Z,11.67
2022-12-19T18:03:26.948Z,11.37
2022-12-19T18:06:32.617Z,11.43
2022-12-19T18:09:38.115Z,11.70
2022-12-19T18:12:55.476Z,11.57
2022-12-19T18:16:02.292Z,11.93
2022-12-19T18:19:12.449Z,11.80
2022-12-19T18:22:30.161Z,10.63
2022-12-19T18:25:39.941Z,11.70
2022-12-19T18:28:49.064Z,12.13
2022-12-19T18:31:59.088Z,11.37
2022-12-19T18:35:06.953Z,10.80
2022-12-19T18:38:17.303Z,11.50
2022-12-19T18:41:26.144Z,11.47
2022-12-19T18:44:32.959Z,10.93
2022-12-19T18:47:44.511Z,11.87
2022-12-19T18:50:54.377Z,12.03
2022-12-19T18:54:02.271Z,10.70
2022-12-19T18:57:08.303Z,11.80
2022-12-19T19:00:18.101Z,11.37
2022-12-19T19:03:30.383Z,11.20
2022-12-19T19:06:48.583Z,11.27
2022-12-19T19:09:56.715Z,11.43
2022-12-19T19:13:37.575Z,12.03
2022-12-19T19:16:44.315Z,11.83
2022-12-19T19:19:50.400Z,12.17
2022-12-19T19:23:17.295Z,11.67
2022-12-19T19:26:33.351Z,12.13
2022-12-19T19:29:39.041Z,13.00
2022-12-19T19:32:48.533Z,12.47
2022-12-19T19:35:57.789Z,12.03
2022-12-19T19:39:10.311Z,12.13
2022-12-19T19:42:17.674Z,12.13
2022-12-19T19:45:25.936Z,13.00
2022-12-19T19:48:35.360Z,13.53
2022-12-19T19:51:45.392Z,13.40
2022-12-19T19:55:00.061Z,13.23
2022-12-19T19:58:12.215Z,12.67
2022-12-19T20:01:20.202Z,12.77
2022-12-19T20:04:31.772Z,13.73
2022-12-19T20:07:43.109Z,12.93
2022-12-19T20:10:57.866Z,12.23
2022-12-19T20:14:04.625Z,12.63
2022-12-19T20:17:17.550Z,11.67
2022-12-19T20:20:30.742Z,10.87
2022-12-19T20:23:37.917Z,11.90
2022-12-19T20:26:45.092Z,11.23
2022-12-19T20:29:53.419Z,12.53
2022-12-19T20:33:03.393Z,11.57
2022-12-19T20:36:12.341Z,11.00
2022-12-19T20:39:24.718Z,10.53
2022-12-19T20:42:43.314Z,11.83
2022-12-19T20:45:51.253Z,10.73
2022-12-19T20:52:23.409Z,10.90
2022-12-19T20:55:45.083Z,10.17
2022-12-19T20:59:05.701Z,10.53
2022-12-19T21:02:13.628Z,9.67
2022-12-19T21:05:25.791Z,11.23
2022-12-19T21:08:37.268Z,10.53
2022-12-19T21:11:43.441Z,10.50
2022-12-19T21:14:50.265Z,9.60
2022-12-19T21:18:05.110Z,9.83
2022-12-19T21:21:17.298Z,9.93
2022-12-19T21:24:23.244Z,9.47
2022-12-19T21:27:30.880Z,10.80
2022-12-19T21:30:40.337Z,10.20
2022-12-19T21:33:48.718Z,10.67
2022-12-19T21:36:56.044Z,10.83
2022-12-19T21:40:01.697Z,10.27
2022-12-19T21:43:12.237Z,11.43
2022-12-19T21:46:25.133Z,11.33
2022-12-19T21:49:31.991Z,12.43
2022-12-19T21:52:41.105Z,11.23
2022-12-19T21:55:46.386Z,10.97
2022-12-19T21:58:55.447Z,11.57
2022-12-19T22:02:03.519Z,11.57
2022-12-19T22:05:09.829Z,11.40
2022-12-19T22:08:18.590Z,12.37
2022-12-19T22:11:29.266Z,10.80
2022-12-19T22:14:36.566Z,12.43
2022-12-19T22:17:48.641Z,12.00
2022-12-19T22:21:03.691Z,11.93
2022-12-19T22:24:11.267Z,11.33
2022-12-19T22:27:18.496Z,11.17
2022-12-19T22:30:28.482Z,11.03
2022-12-19T22:33:35.480Z,10.30
2022-12-19T22:36:42.516Z,11.23
2022-12-19T22:39:47.993Z,10.53
2022-12-19T22:43:20.740Z,10.07
2022-12-19T22:47:23.255Z,10.67
2022-12-19T22:50:31.078Z,10.07
2022-12-19T22:53:37.000Z,9.53
2022-12-19T22:56:42.750Z,9.40
2022-12-19T22:59:51.320Z,9.00
2022-12-19T23:02:58.612Z,8.57
2022-12-19T23:06:08.517Z,8.80
2022-12-19T23:09:17.572Z,9.37
2022-12-19T23:12:24.240Z,9.70
2022-12-19T23:15:29.836Z,9.60
2022-12-19T23:18:36.696Z,9.27
2022-12-19T23:21:43.911Z,9.50
2022-12-19T23:24:53.988Z,9.60
2022-12-19T23:27:59.453Z,9.13
2022-12-19T23:31:08.230Z,9.53
2022-12-19T23:34:18.568Z,9.97
2022-12-19T23:37:28.692Z,9.60
2022-12-19T23:40:36.439Z,9.97
2022-12-19T23:43:42.500Z,9.17
2022-12-19T23:46:48.528Z,9.27
2022-12-19T23:49:55.885Z,9.10
2022-12-19T23:53:03.160Z,9.33
2022-12-19T23:56:13.156Z,9.90
2022-12-19T23:59:20.385Z,9.23
